Rixey, Arkansas
Current Conditions -  °F | °C
As of 7:53 AM on Monday 22 Dec 2014 (Local Time) from KLIT Reporting Station
Haze Haze  
Wind Chill: 50°   Ceiling: 500
Heat Index: 50°   Visibility: 6mi
Dew Point: 47°   Wind: 9mph
Humidity: 89%   Direction: 170°S
Pressure: 29.75"   Gusts: NA
Location:  34.757°N, 92.1411°W
Report Text: KLIT 221353Z 17008KT 6SM BR OVC005 10/08 A2975 RMK AO2 SLP078 T01000083
Loading
Personal Weather Stations






























Interactive Weather Map New forecast layout! Learn more

10-Day Weather Forecast

Advertisements
Track Severe Weather on mobile